createdAt,value
2023-04-14T00:00:15.245Z,30.99
2023-04-14T00:02:46.662Z,30.99
2023-04-14T00:05:17.174Z,30.97
2023-04-14T00:07:47.572Z,30.94
2023-04-14T00:10:17.678Z,30.92
2023-04-14T00:12:47.753Z,30.94
2023-04-14T00:15:17.958Z,30.98
2023-04-14T00:17:48.171Z,31.00
2023-04-14T00:20:18.474Z,30.71
2023-04-14T00:22:48.668Z,31.03
2023-04-14T00:25:19.197Z,31.03
2023-04-14T00:27:49.356Z,31.03
2023-04-14T00:30:19.912Z,31.05
2023-04-14T00:32:50.104Z,31.08
2023-04-14T00:35:20.257Z,31.09
2023-04-14T00:37:50.423Z,31.09
2023-04-14T00:40:20.493Z,31.13
2023-04-14T00:42:50.662Z,31.12
2023-04-14T00:45:20.776Z,31.13
2023-04-14T00:47:52.172Z,31.14
2023-04-14T00:50:22.893Z,31.20
2023-04-14T00:52:54.199Z,31.23
2023-04-14T00:55:24.526Z,31.27
2023-04-14T00:57:54.914Z,31.31
2023-04-14T01:00:25.045Z,31.34
2023-04-14T01:02:55.987Z,31.36
2023-04-14T01:05:27.027Z,31.39
2023-04-14T01:07:57.240Z,31.44
2023-04-14T01:10:32.510Z,31.45
2023-04-14T01:13:17.572Z,31.47
2023-04-14T01:15:59.833Z,31.50
2023-04-14T01:18:37.983Z,31.51
2023-04-14T01:21:12.743Z,31.53
2023-04-14T01:23:49.549Z,31.55
2023-04-14T01:26:28.352Z,31.57
2023-04-14T01:29:09.298Z,31.60
2023-04-14T01:31:43.222Z,31.60
2023-04-14T01:34:15.325Z,31.62
2023-04-14T01:36:54.734Z,31.63
2023-04-14T01:39:26.803Z,31.66
2023-04-14T01:42:03.672Z,31.67
2023-04-14T01:44:35.104Z,31.68
2023-04-14T01:47:10.226Z,31.69
2023-04-14T01:49:42.511Z,31.70
2023-04-14T01:52:14.432Z,31.72
2023-04-14T01:54:45.613Z,31.73
2023-04-14T01:57:17.866Z,31.75
2023-04-14T01:59:49.594Z,31.75
2023-04-14T02:02:20.384Z,31.76
2023-04-14T02:04:51.836Z,31.77
2023-04-14T02:07:23.392Z,31.79
2023-04-14T02:09:58.649Z,31.80
2023-04-14T02:12:29.790Z,31.81
2023-04-14T02:15:02.015Z,31.82
2023-04-14T02:17:32.681Z,31.84
2023-04-14T02:20:03.579Z,31.86
2023-04-14T02:22:33.820Z,31.88
2023-04-14T02:25:04.518Z,31.90
2023-04-14T02:27:38.857Z,31.91
2023-04-14T02:30:14.375Z,31.93
2023-04-14T02:32:48.792Z,31.94
2023-04-14T02:35:21.071Z,31.96
2023-04-14T02:37:54.688Z,31.97
2023-04-14T02:40:30.787Z,32.00
2023-04-14T02:43:06.746Z,32.02
2023-04-14T02:45:38.396Z,32.04
2023-04-14T02:50:55.067Z,32.08
2023-04-14T02:53:28.386Z,32.10
2023-04-14T02:56:17.556Z,32.12
2023-04-14T02:58:49.848Z,32.15
2023-04-14T03:01:20.980Z,32.17
2023-04-14T03:03:54.786Z,32.20
2023-04-14T03:06:27.668Z,32.20
2023-04-14T03:08:59.017Z,32.24
2023-04-14T03:11:31.386Z,32.26
2023-04-14T03:14:02.115Z,32.28
2023-04-14T03:16:33.615Z,32.30
2023-04-14T03:19:05.654Z,32.31
2023-04-14T03:21:38.451Z,32.33
2023-04-14T03:24:09.153Z,32.36
2023-04-14T03:26:40.186Z,32.37
2023-04-14T03:29:11.054Z,32.39
2023-04-14T03:31:41.855Z,32.40
2023-04-14T03:34:12.928Z,32.41
2023-04-14T03:36:46.942Z,32.44
2023-04-14T03:39:18.914Z,32.46
2023-04-14T03:41:53.003Z,32.49
2023-04-14T03:44:26.789Z,32.52
2023-04-14T03:46:57.178Z,32.52
2023-04-14T03:49:29.325Z,32.57
2023-04-14T03:52:01.205Z,32.58
2023-04-14T03:54:33.850Z,32.58
2023-04-14T03:57:07.781Z,32.59
2023-04-14T03:59:40.148Z,32.60
2023-04-14T04:02:11.536Z,32.61
2023-04-14T04:04:42.957Z,32.61
2023-04-14T04:07:17.018Z,32.62
2023-04-14T04:09:48.232Z,32.63
2023-04-14T04:12:20.503Z,32.64
2023-04-14T04:14:50.918Z,32.65
2023-04-14T04:17:24.886Z,32.66
2023-04-14T04:19:56.784Z,32.68
2023-04-14T04:22:28.506Z,32.70
2023-04-14T04:24:59.618Z,32.71
2023-04-14T04:27:35.370Z,32.72
2023-04-14T04:30:15.013Z,32.75
2023-04-14T04:32:45.654Z,32.78
2023-04-14T04:35:16.927Z,32.78
2023-04-14T04:37:50.340Z,32.81
2023-04-14T04:40:21.095Z,32.83
2023-04-14T04:42:53.650Z,32.85
2023-04-14T04:45:43.262Z,32.87
2023-04-14T04:48:13.642Z,32.88
2023-04-14T04:50:47.029Z,32.90
2023-04-14T04:53:17.480Z,32.92
2023-04-14T04:55:47.785Z,32.93
2023-04-14T04:58:18.390Z,32.93
2023-04-14T05:00:48.773Z,32.97
2023-04-14T05:03:18.971Z,32.99
2023-04-14T05:05:49.668Z,33.01
2023-04-14T05:08:20.315Z,33.02
2023-04-14T05:10:50.619Z,33.06
2023-04-14T05:13:20.947Z,33.08
2023-04-14T05:15:51.530Z,33.10
2023-04-14T05:18:22.299Z,33.12
2023-04-14T05:20:52.927Z,33.17
2023-04-14T05:23:23.477Z,33.19
2023-04-14T05:25:53.477Z,33.22
2023-04-14T05:28:24.222Z,33.23
2023-04-14T05:30:54.608Z,33.25
2023-04-14T05:33:25.589Z,33.28
2023-04-14T05:35:56.230Z,33.27
2023-04-14T05:38:28.556Z,33.15
2023-04-14T05:40:58.655Z,33.33
2023-04-14T05:43:29.196Z,33.35
2023-04-14T05:46:00.037Z,33.38
2023-04-14T05:48:31.968Z,33.40
2023-04-14T05:51:02.158Z,33.42
2023-04-14T05:53:32.415Z,33.46
2023-04-14T05:56:02.906Z,33.46
2023-04-14T05:58:33.694Z,33.49
2023-04-14T06:01:05.520Z,33.51
2023-04-14T06:03:39.513Z,33.54
2023-04-14T06:06:10.756Z,33.57
2023-04-14T06:08:45.332Z,33.60
2023-04-14T06:11:15.865Z,33.62
2023-04-14T06:13:46.325Z,33.66
2023-04-14T06:16:16.700Z,33.68
2023-04-14T06:18:47.071Z,33.70
2023-04-14T06:21:17.215Z,33.74
2023-04-14T06:23:47.552Z,33.75
2023-04-14T06:26:17.845Z,33.77
2023-04-14T06:28:48.601Z,33.79
2023-04-14T06:31:19.041Z,33.82
2023-04-14T06:33:49.608Z,33.85
2023-04-14T06:36:19.691Z,33.86
2023-04-14T06:38:49.755Z,33.88
2023-04-14T06:41:19.786Z,33.91
2023-04-14T06:43:53.141Z,33.94
2023-04-14T06:46:23.271Z,33.96
2023-04-14T06:48:53.623Z,33.99
2023-04-14T06:51:23.925Z,34.02
2023-04-14T06:53:54.645Z,34.05
2023-04-14T06:56:24.854Z,34.07
2023-04-14T06:58:55.389Z,34.11
2023-04-14T07:01:25.705Z,34.12
2023-04-14T07:03:56.270Z,34.16
2023-04-14T07:06:26.714Z,34.19
2023-04-14T07:08:57.793Z,34.21
2023-04-14T07:11:27.883Z,34.23
2023-04-14T07:13:58.420Z,34.24
2023-04-14T07:16:28.716Z,34.28
2023-04-14T07:18:58.938Z,34.30
2023-04-14T07:21:29.109Z,34.31
2023-04-14T07:23:59.614Z,34.33
2023-04-14T07:26:29.873Z,34.35
2023-04-14T07:28:59.977Z,34.38
2023-04-14T07:31:30.676Z,34.41
2023-04-14T07:34:00.936Z,34.44
2023-04-14T07:36:32.375Z,34.48
2023-04-14T07:39:02.487Z,34.53
2023-04-14T07:41:33.025Z,34.55
2023-04-14T07:44:03.561Z,34.59
2023-04-14T07:46:33.843Z,34.60
2023-04-14T07:49:04.002Z,34.62
2023-04-14T07:51:34.496Z,34.63
2023-04-14T07:54:04.920Z,34.64
2023-04-14T07:56:35.019Z,34.67
2023-04-14T07:59:05.231Z,34.67
2023-04-14T08:01:35.843Z,34.69
2023-04-14T08:04:06.199Z,34.72
2023-04-14T08:06:45.869Z,34.74
2023-04-14T08:09:16.318Z,34.77
2023-04-14T08:11:46.654Z,34.79
2023-04-14T08:14:16.918Z,34.82
2023-04-14T08:16:47.251Z,34.84
2023-04-14T08:19:17.415Z,34.86
2023-04-14T08:21:47.520Z,34.87
2023-04-14T08:24:18.854Z,34.89
2023-04-14T08:26:49.355Z,34.92
2023-04-14T08:29:19.689Z,34.93
2023-04-14T08:32:02.512Z,34.96
2023-04-14T08:34:35.255Z,34.77
2023-04-14T08:37:05.702Z,34.99
2023-04-14T08:39:35.901Z,35.00
2023-04-14T08:42:06.699Z,35.02
2023-04-14T08:44:37.262Z,35.05
2023-04-14T08:47:08.378Z,35.06
2023-04-14T08:50:03.218Z,35.07
2023-04-14T08:52:34.173Z,35.08
2023-04-14T08:55:06.140Z,35.09
2023-04-14T08:57:37.086Z,35.12
2023-04-14T09:00:08.116Z,35.13
2023-04-14T09:02:42.715Z,35.14
2023-04-14T09:05:13.363Z,35.14
2023-04-14T09:07:44.467Z,34.95
2023-04-14T09:10:15.781Z,35.17
2023-04-14T09:12:46.757Z,35.16
2023-04-14T09:15:18.342Z,35.18
2023-04-14T09:17:48.560Z,35.18
2023-04-14T09:20:35.924Z,35.20
2023-04-14T09:23:11.982Z,34.94
2023-04-14T09:25:43.782Z,34.80
2023-04-14T09:28:13.870Z,34.67
2023-04-14T09:30:44.682Z,34.58
2023-04-14T09:33:24.192Z,34.51
2023-04-14T09:35:55.742Z,34.45
2023-04-14T09:38:36.220Z,34.41
2023-04-14T09:41:10.221Z,34.39
2023-04-14T09:43:40.766Z,34.36
2023-04-14T09:46:11.629Z,34.37
2023-04-14T09:48:58.109Z,34.34
2023-04-14T09:51:31.620Z,34.36
2023-04-14T09:54:06.157Z,34.34
2023-04-14T09:56:36.616Z,34.32
2023-04-14T09:59:07.085Z,34.31
2023-04-14T10:01:38.261Z,34.29
2023-04-14T10:04:24.107Z,34.28
2023-04-14T10:06:57.973Z,34.28
2023-04-14T10:09:32.384Z,34.22
2023-04-14T10:12:16.094Z,34.19
2023-04-14T10:14:46.435Z,34.17
2023-04-14T10:17:16.870Z,34.13
2023-04-14T10:19:47.368Z,34.12
2023-04-14T10:22:18.726Z,34.09
2023-04-14T10:24:50.522Z,34.10
2023-04-14T10:27:20.960Z,34.10
2023-04-14T10:29:51.357Z,34.10
2023-04-14T10:32:22.405Z,34.10
2023-04-14T10:34:59.383Z,34.10
2023-04-14T10:37:29.607Z,34.06
2023-04-14T10:40:00.878Z,34.06
2023-04-14T10:42:34.540Z,34.05
2023-04-14T10:45:09.114Z,34.06
2023-04-14T10:47:42.126Z,34.17
2023-04-14T10:50:14.113Z,34.28
2023-04-14T10:53:00.498Z,34.35
2023-04-14T10:55:31.251Z,34.41
2023-04-14T10:58:08.485Z,34.44
2023-04-14T11:00:42.015Z,34.48
2023-04-14T11:03:13.669Z,34.50
2023-04-14T11:05:49.707Z,34.50
2023-04-14T11:08:36.659Z,34.51
2023-04-14T11:11:07.674Z,34.51
2023-04-14T11:13:40.360Z,34.52
2023-04-14T11:16:12.143Z,34.51
2023-04-14T11:18:46.835Z,34.51
2023-04-14T11:21:19.861Z,34.50
2023-04-14T11:23:50.731Z,34.47
2023-04-14T11:26:21.569Z,34.48
2023-04-14T11:28:54.705Z,34.47
2023-04-14T11:31:28.978Z,34.46
2023-04-14T11:33:59.120Z,34.46
2023-04-14T11:36:29.449Z,34.44
2023-04-14T11:39:00.835Z,34.41
2023-04-14T11:41:31.741Z,34.41
2023-04-14T11:44:02.531Z,34.41
2023-04-14T11:46:33.231Z,34.39
2023-04-14T11:49:03.822Z,34.37
2023-04-14T11:51:35.105Z,34.36
2023-04-14T11:54:05.263Z,34.35
2023-04-14T11:56:36.129Z,34.33
2023-04-14T11:59:07.616Z,34.32
2023-04-14T12:01:37.893Z,34.31
2023-04-14T12:04:09.130Z,34.29
2023-04-14T12:06:41.019Z,34.29
2023-04-14T12:09:12.048Z,34.25
2023-04-14T12:11:42.319Z,34.24
2023-04-14T12:14:13.248Z,34.21
2023-04-14T12:16:43.393Z,34.12
2023-04-14T12:19:13.526Z,33.98
2023-04-14T12:21:43.670Z,33.90
2023-04-14T12:24:13.916Z,33.83
2023-04-14T12:26:45.073Z,33.59
2023-04-14T12:29:15.571Z,33.71
2023-04-14T12:31:45.830Z,33.65
2023-04-14T12:34:21.485Z,33.51
2023-04-14T12:36:55.123Z,33.30
2023-04-14T12:39:27.615Z,33.07
2023-04-14T12:41:59.833Z,32.88
2023-04-14T12:44:30.059Z,32.72
2023-04-14T12:47:00.209Z,32.56
2023-04-14T12:49:34.572Z,32.44
2023-04-14T12:52:06.146Z,32.29
2023-04-14T12:54:49.650Z,32.22
2023-04-14T12:57:23.395Z,32.08
2023-04-14T12:59:53.885Z,31.95
2023-04-14T13:02:24.571Z,31.87
2023-04-14T13:04:54.843Z,31.76
2023-04-14T13:07:25.109Z,31.68
2023-04-14T13:09:55.326Z,31.56
2023-04-14T13:12:25.702Z,31.51
2023-04-14T13:14:55.903Z,31.44
2023-04-14T13:17:27.042Z,31.39
2023-04-14T13:19:59.630Z,31.33
2023-04-14T13:22:29.782Z,31.28
2023-04-14T13:25:02.082Z,31.21
2023-04-14T13:27:32.473Z,31.14
2023-04-14T13:30:03.432Z,31.12
2023-04-14T13:32:34.021Z,31.09
2023-04-14T13:35:04.266Z,31.09
2023-04-14T13:37:34.617Z,31.06
2023-04-14T13:40:05.362Z,31.09
2023-04-14T13:42:35.670Z,31.11
2023-04-14T13:45:07.155Z,31.06
2023-04-14T13:47:37.551Z,31.04
2023-04-14T13:50:08.902Z,30.77
2023-04-14T13:52:39.275Z,30.96
2023-04-14T13:55:11.307Z,30.95
2023-04-14T13:57:42.066Z,30.89
2023-04-14T14:00:12.867Z,30.90
2023-04-14T14:02:43.758Z,30.90
2023-04-14T14:05:16.455Z,30.87
2023-04-14T14:07:47.584Z,30.85
2023-04-14T14:10:19.737Z,30.78
2023-04-14T14:12:50.406Z,30.76
2023-04-14T14:15:21.219Z,30.78
2023-04-14T14:17:54.529Z,30.73
2023-04-14T14:20:24.933Z,30.71
2023-04-14T14:22:55.528Z,30.47
2023-04-14T14:25:26.535Z,30.62
2023-04-14T14:27:59.758Z,30.57
2023-04-14T14:30:31.267Z,30.54
2023-04-14T14:33:03.215Z,30.49
2023-04-14T14:35:33.674Z,30.44
2023-04-14T14:38:03.821Z,30.44
2023-04-14T14:40:34.008Z,30.42
2023-04-14T14:43:04.383Z,30.37
2023-04-14T14:45:35.140Z,30.34
2023-04-14T14:48:15.125Z,30.27
2023-04-14T14:50:45.321Z,30.27
2023-04-14T14:53:15.344Z,30.22
2023-04-14T14:55:45.473Z,30.24
2023-04-14T14:58:15.896Z,30.19
2023-04-14T15:00:46.291Z,30.21
2023-04-14T15:03:16.540Z,30.18
2023-04-14T15:05:47.921Z,30.16
2023-04-14T15:08:18.540Z,30.19
2023-04-14T15:10:48.697Z,30.22
2023-04-14T15:13:19.224Z,30.22
2023-04-14T15:15:49.522Z,29.78
2023-04-14T15:18:19.573Z,30.23
2023-04-14T15:20:49.672Z,30.25
2023-04-14T15:23:19.691Z,30.24
2023-04-14T15:25:49.747Z,30.26
2023-04-14T15:28:19.948Z,30.26
2023-04-14T15:30:50.071Z,30.26
2023-04-14T15:33:20.184Z,30.27
2023-04-14T15:35:50.208Z,30.27
2023-04-14T15:38:20.468Z,30.28
2023-04-14T15:40:50.969Z,30.28
2023-04-14T15:43:21.107Z,30.28
2023-04-14T15:45:51.191Z,30.27
2023-04-14T15:48:21.386Z,30.27
2023-04-14T15:50:52.760Z,30.23
2023-04-14T15:53:22.980Z,30.24
2023-04-14T15:55:53.725Z,30.19
2023-04-14T15:58:24.283Z,30.16
2023-04-14T16:00:55.130Z,30.14
2023-04-14T16:03:25.514Z,30.14
2023-04-14T16:06:05.235Z,30.11
2023-04-14T16:08:35.494Z,30.10
2023-04-14T16:11:06.321Z,30.10
2023-04-14T16:13:36.305Z,30.05
2023-04-14T16:16:07.932Z,30.08
2023-04-14T16:18:38.353Z,30.06
2023-04-14T16:21:08.535Z,30.06
2023-04-14T16:23:39.069Z,30.06
2023-04-14T16:26:09.569Z,30.04
2023-04-14T16:28:40.563Z,29.99
2023-04-14T16:31:10.696Z,29.98
2023-04-14T16:33:40.764Z,29.98
2023-04-14T16:36:10.920Z,29.98
2023-04-14T16:38:40.957Z,29.97
2023-04-14T16:41:10.972Z,29.97
2023-04-14T16:43:41.425Z,29.95
2023-04-14T16:46:11.898Z,29.94
2023-04-14T16:48:42.784Z,29.93
2023-04-14T16:51:13.192Z,29.91
2023-04-14T16:53:44.174Z,29.88
2023-04-14T16:56:14.580Z,29.87
2023-04-14T16:58:44.733Z,29.82
2023-04-14T17:01:18.384Z,29.84
2023-04-14T17:03:48.967Z,29.82
2023-04-14T17:06:19.060Z,29.80
2023-04-14T17:08:49.257Z,29.80
2023-04-14T17:11:19.339Z,29.81
2023-04-14T17:13:49.405Z,29.79
2023-04-14T17:16:19.525Z,29.77
2023-04-14T17:18:50.595Z,29.78
2023-04-14T17:21:20.870Z,29.71
2023-04-14T17:23:50.996Z,29.72
2023-04-14T17:26:21.312Z,29.73
2023-04-14T17:28:51.804Z,29.71
2023-04-14T17:31:22.372Z,29.69
2023-04-14T17:33:52.790Z,29.70
2023-04-14T17:36:23.117Z,29.67
2023-04-14T17:38:53.174Z,29.65
2023-04-14T17:41:23.289Z,29.64
2023-04-14T17:43:53.480Z,29.65
2023-04-14T17:46:30.656Z,29.62
2023-04-14T17:49:01.567Z,29.64
2023-04-14T17:51:34.229Z,29.61
2023-04-14T17:54:05.261Z,29.58
2023-04-14T17:56:35.380Z,29.59
2023-04-14T17:59:06.155Z,29.50
2023-04-14T18:01:36.867Z,29.25
2023-04-14T18:04:07.437Z,29.47
2023-04-14T18:06:38.054Z,29.49
2023-04-14T18:09:08.185Z,29.47
2023-04-14T18:11:38.294Z,29.49
2023-04-14T18:14:08.381Z,29.46
2023-04-14T18:16:38.858Z,29.43
2023-04-14T18:19:09.576Z,29.40
2023-04-14T18:21:39.892Z,29.42
2023-04-14T18:26:45.212Z,29.40
2023-04-14T18:29:15.456Z,29.42
2023-04-14T18:31:45.644Z,29.41
2023-04-14T18:34:15.913Z,29.36
2023-04-14T18:36:46.438Z,29.36
2023-04-14T18:39:17.787Z,29.34
2023-04-14T18:41:48.199Z,29.35
2023-04-14T18:44:18.519Z,29.32
2023-04-14T18:46:48.638Z,29.34
2023-04-14T18:49:20.554Z,29.34
2023-04-14T18:51:50.811Z,29.32
2023-04-14T18:54:20.934Z,29.29
2023-04-14T18:56:51.003Z,29.27
2023-04-14T18:59:21.508Z,29.26
2023-04-14T19:01:52.426Z,29.28
2023-04-14T19:04:22.647Z,29.26
2023-04-14T19:06:52.988Z,29.27
2023-04-14T19:09:24.619Z,29.28
2023-04-14T19:11:54.708Z,29.25
2023-04-14T19:14:24.960Z,29.24
2023-04-14T19:16:55.018Z,29.23
2023-04-14T19:19:25.249Z,29.23
2023-04-14T19:21:55.384Z,29.23
2023-04-14T19:24:25.718Z,29.19
2023-04-14T19:26:55.721Z,29.17
2023-04-14T19:29:25.955Z,29.12
2023-04-14T19:31:56.041Z,29.10
2023-04-14T19:34:26.231Z,29.11
2023-04-14T19:36:56.430Z,29.07
2023-04-14T19:39:27.044Z,29.05
2023-04-14T19:41:57.830Z,29.09
2023-04-14T19:44:28.799Z,29.06
2023-04-14T19:46:59.249Z,29.04
2023-04-14T19:49:29.800Z,29.02
2023-04-14T19:52:00.157Z,29.03
2023-04-14T19:54:30.298Z,29.00
2023-04-14T19:57:00.379Z,29.01
2023-04-14T19:59:30.997Z,29.02
2023-04-14T20:02:02.420Z,28.99
2023-04-14T20:04:32.536Z,28.96
2023-04-14T20:07:02.836Z,28.95
2023-04-14T20:09:33.122Z,28.95
2023-04-14T20:12:06.077Z,28.96
2023-04-14T20:14:36.159Z,28.95
2023-04-14T20:17:06.304Z,28.94
2023-04-14T20:19:36.422Z,28.94
2023-04-14T20:22:06.578Z,28.92
2023-04-14T20:24:36.673Z,28.92
2023-04-14T20:27:06.748Z,28.92
2023-04-14T20:29:37.138Z,28.91
2023-04-14T20:32:07.346Z,28.91
2023-04-14T20:34:37.478Z,28.91
2023-04-14T20:37:08.155Z,28.89
2023-04-14T20:39:38.232Z,28.90
2023-04-14T20:42:08.814Z,28.90
2023-04-14T20:44:39.003Z,28.87
2023-04-14T20:47:09.704Z,28.85
2023-04-14T20:49:40.665Z,28.81
2023-04-14T20:52:11.245Z,28.77
2023-04-14T20:54:41.279Z,28.74
2023-04-14T20:57:11.926Z,28.73
2023-04-14T20:59:42.041Z,28.75
2023-04-14T21:02:12.304Z,28.77
2023-04-14T21:04:42.369Z,28.73
2023-04-14T21:07:12.467Z,28.74
2023-04-14T21:09:43.209Z,28.73
2023-04-14T21:12:16.550Z,28.68
2023-04-14T21:15:41.442Z,28.69
2023-04-14T21:17:37.227Z,28.70
2023-04-14T21:20:08.080Z,28.71
2023-04-14T21:22:39.232Z,28.69
2023-04-14T21:25:09.912Z,28.70
2023-04-14T21:27:40.089Z,28.65
2023-04-14T21:30:12.932Z,28.63
2023-04-14T21:32:44.028Z,28.62
2023-04-14T21:35:14.117Z,28.63
2023-04-14T21:37:44.621Z,28.63
2023-04-14T21:40:14.664Z,28.64
2023-04-14T21:42:44.796Z,28.67
2023-04-14T21:45:15.509Z,28.69
2023-04-14T21:47:45.765Z,28.70
2023-04-14T21:50:16.341Z,28.69
2023-04-14T21:52:46.655Z,28.68
2023-04-14T21:55:16.684Z,28.71
2023-04-14T21:57:49.277Z,28.70
2023-04-14T22:00:19.911Z,28.66
2023-04-14T22:02:51.007Z,28.66
2023-04-14T22:05:21.574Z,28.65
2023-04-14T22:07:52.208Z,28.62
2023-04-14T22:10:23.300Z,28.63
2023-04-14T22:12:53.717Z,28.60
2023-04-14T22:15:23.794Z,28.61
2023-04-14T22:17:54.918Z,28.56
2023-04-14T22:20:25.659Z,28.54
2023-04-14T22:22:56.897Z,28.52
2023-04-14T22:25:27.539Z,28.50
2023-04-14T22:27:58.008Z,28.28
2023-04-14T22:30:28.144Z,28.46
2023-04-14T22:32:58.842Z,28.44
2023-04-14T22:35:28.872Z,28.43
2023-04-14T22:37:59.324Z,28.45
2023-04-14T22:40:29.456Z,28.45
2023-04-14T22:42:59.537Z,28.41
2023-04-14T22:45:29.585Z,28.42
2023-04-14T22:47:59.692Z,28.38
2023-04-14T22:50:31.718Z,28.41
2023-04-14T22:53:02.407Z,28.38
2023-04-14T22:55:32.838Z,28.37
2023-04-14T22:58:02.915Z,28.35
2023-04-14T23:00:33.021Z,28.36
2023-04-14T23:03:03.296Z,28.36
2023-04-14T23:05:33.663Z,28.47
2023-04-14T23:08:04.331Z,28.61
2023-04-14T23:10:34.604Z,28.75
2023-04-14T23:13:05.082Z,28.86
2023-04-14T23:15:35.185Z,28.98
2023-04-14T23:18:05.272Z,29.09
2023-04-14T23:20:35.550Z,29.18
2023-04-14T23:23:06.184Z,29.29
2023-04-14T23:25:36.311Z,29.37
2023-04-14T23:28:06.626Z,29.45
2023-04-14T23:30:36.930Z,29.52
2023-04-14T23:33:07.210Z,29.58
2023-04-14T23:35:38.275Z,29.66
2023-04-14T23:38:08.691Z,29.73
2023-04-14T23:40:38.918Z,29.78
2023-04-14T23:43:09.633Z,29.86
2023-04-14T23:45:39.782Z,29.92
2023-04-14T23:48:10.028Z,29.98
2023-04-14T23:51:00.257Z,30.02
2023-04-14T23:53:31.056Z,30.08
2023-04-14T23:56:01.148Z,30.14
2023-04-14T23:58:31.229Z,30.19
